Time;durP1;ratioP1;P1;durP2;ratioP2;P2;SDS_P1;SDS_P2;PMS_P1;PMS_P2;Temp;Humidity;BMP_temperature;BMP_pressure;BME280_temperature;BME280_humidity;BME280_pressure;Samples;Min_cycle;Max_cycle;Signal;HPM_P1;HPM_P2
2022/12/28 00:01:56;;;;;;;17.40;7.80;;;4.40;99.90;;;;;;463194;257;27545;-79
2022/12/28 00:03:57;;;;;;;12.20;7.85;;;4.40;99.90;;;;;;463185;256;27593;-79
2022/12/28 00:05:59;;;;;;;12.25;6.65;;;4.40;99.90;;;;;;463192;257;27478;-74
2022/12/28 00:08:00;;;;;;;9.43;6.72;;;4.50;99.90;;;;;;463231;257;27990;-76
2022/12/28 00:10:01;;;;;;;8.85;6.68;;;4.50;99.90;;;;;;463188;257;27915;-74
2022/12/28 00:12:03;;;;;;;15.45;7.80;;;4.50;99.90;;;;;;463108;257;27486;-74
2022/12/28 00:14:04;;;;;;;18.00;7.07;;;4.50;99.90;;;;;;463168;257;27438;-75
2022/12/28 00:16:05;;;;;;;7.05;6.25;;;4.50;99.90;;;;;;463198;257;27538;-75
2022/12/28 00:18:06;;;;;;;9.75;7.00;;;4.50;99.90;;;;;;463183;257;27503;-75
2022/12/28 00:20:08;;;;;;;10.40;7.25;;;4.50;99.90;;;;;;463176;257;27498;-74
2022/12/28 00:22:09;;;;;;;14.50;8.45;;;4.60;99.90;;;;;;463182;257;27519;-75
2022/12/28 00:24:10;;;;;;;13.40;8.23;;;4.60;99.90;;;;;;463184;257;28688;-76
2022/12/28 00:26:11;;;;;;;10.98;7.70;;;4.50;99.90;;;;;;463179;257;28027;-74
2022/12/28 00:28:13;;;;;;;15.13;7.30;;;4.60;99.90;;;;;;463209;257;29209;-76
2022/12/28 00:30:14;;;;;;;19.83;8.48;;;4.60;99.90;;;;;;463175;257;27448;-75
2022/12/28 00:32:15;;;;;;;15.55;8.43;;;4.60;99.90;;;;;;463176;257;27569;-75
2022/12/28 00:34:16;;;;;;;12.82;7.30;;;4.70;99.90;;;;;;463186;257;27495;-74
2022/12/28 00:36:18;;;;;;;11.48;6.90;;;4.60;99.90;;;;;;463202;257;27487;-76
2022/12/28 00:38:19;;;;;;;13.65;8.15;;;4.70;99.90;;;;;;463211;257;27482;-75
2022/12/28 00:40:20;;;;;;;15.45;8.05;;;4.70;99.90;;;;;;463192;257;27962;-74
2022/12/28 00:42:21;;;;;;;9.40;7.85;;;4.70;99.90;;;;;;463245;257;27960;-74
2022/12/28 00:44:23;;;;;;;17.08;8.93;;;4.70;99.90;;;;;;463259;257;27488;-75
2022/12/28 00:46:24;;;;;;;13.93;8.65;;;4.70;99.90;;;;;;463278;257;27459;-78
2022/12/28 00:48:25;;;;;;;11.18;7.57;;;4.80;99.90;;;;;;463316;257;27478;-78
2022/12/28 00:50:26;;;;;;;13.38;8.85;;;4.80;99.90;;;;;;463185;257;27519;-74
2022/12/28 00:52:28;;;;;;;14.65;8.13;;;4.80;99.90;;;;;;463268;257;27569;-79
2022/12/28 00:54:29;;;;;;;15.45;9.38;;;4.80;99.90;;;;;;463319;257;28138;-79
2022/12/28 00:56:30;;;;;;;14.90;8.10;;;4.90;99.90;;;;;;463299;257;27918;-78
2022/12/28 00:58:32;;;;;;;11.93;8.13;;;4.90;99.90;;;;;;463218;257;27558;-74
2022/12/28 01:00:33;;;;;;;16.27;8.77;;;4.90;99.90;;;;;;463265;257;27456;-79
2022/12/28 01:02:34;;;;;;;13.98;9.27;;;4.90;99.90;;;;;;463223;257;27448;-79
2022/12/28 01:04:35;;;;;;;13.90;9.15;;;4.90;99.90;;;;;;463178;257;27933;-76
2022/12/28 01:06:36;;;;;;;15.30;9.05;;;4.90;99.90;;;;;;463207;257;27466;-74
2022/12/28 01:08:38;;;;;;;15.85;9.00;;;5.00;99.90;;;;;;463252;257;27900;-79
2022/12/28 01:10:39;;;;;;;8.95;6.70;;;5.00;99.90;;;;;;463282;257;28013;-80
2022/12/28 01:12:40;;;;;;;11.77;8.13;;;5.00;99.90;;;;;;463230;257;28017;-76
2022/12/28 01:14:41;;;;;;;11.98;7.85;;;5.10;99.90;;;;;;463222;257;27613;-75
2022/12/28 01:16:43;;;;;;;18.87;9.00;;;5.00;99.90;;;;;;463291;257;27451;-79
2022/12/28 01:18:44;;;;;;;18.50;8.00;;;5.10;99.90;;;;;;463264;257;27518;-79
2022/12/28 01:20:45;;;;;;;15.20;7.37;;;5.10;99.90;;;;;;463251;257;27459;-79
2022/12/28 01:22:47;;;;;;;10.98;7.72;;;5.10;99.90;;;;;;463217;257;27486;-78
2022/12/28 01:24:48;;;;;;;10.23;7.87;;;5.10;99.90;;;;;;463220;257;28058;-76
2022/12/28 01:26:49;;;;;;;8.05;6.93;;;5.10;99.90;;;;;;463227;257;27603;-76
2022/12/28 01:28:50;;;;;;;8.02;5.53;;;5.10;99.90;;;;;;463218;257;27483;-77
2022/12/28 01:30:52;;;;;;;10.45;7.40;;;5.20;99.90;;;;;;463197;257;27451;-76
2022/12/28 01:32:53;;;;;;;11.93;7.00;;;5.10;99.90;;;;;;463271;257;27526;-80
2022/12/28 01:34:54;;;;;;;9.80;6.55;;;5.10;99.90;;;;;;463272;257;27503;-79
2022/12/28 01:36:55;;;;;;;9.77;6.75;;;5.20;99.90;;;;;;463286;257;27593;-79
2022/12/28 01:38:57;;;;;;;10.38;6.40;;;5.10;99.90;;;;;;463261;257;28027;-80
2022/12/28 01:40:58;;;;;;;17.83;8.15;;;5.10;99.90;;;;;;463221;257;27965;-76
2022/12/28 01:42:59;;;;;;;8.02;5.57;;;5.10;99.90;;;;;;463159;257;27509;-74
2022/12/28 01:45:00;;;;;;;10.63;5.82;;;5.10;99.90;;;;;;463232;257;27476;-76
2022/12/28 01:47:02;;;;;;;10.82;7.20;;;5.10;99.90;;;;;;463199;257;27435;-74
2022/12/28 01:49:03;;;;;;;10.60;5.80;;;5.10;99.90;;;;;;463208;257;27479;-74
2022/12/28 01:51:04;;;;;;;11.85;6.15;;;5.10;99.90;;;;;;463213;257;27427;-75
2022/12/28 01:53:05;;;;;;;9.30;6.18;;;5.10;99.90;;;;;;463201;257;27955;-74
2022/12/28 01:55:07;;;;;;;10.23;6.43;;;5.00;99.90;;;;;;463270;257;27962;-79
2022/12/28 01:57:08;;;;;;;11.25;6.25;;;5.10;99.90;;;;;;463263;257;27567;-78
2022/12/28 01:59:09;;;;;;;11.15;5.60;;;5.10;99.90;;;;;;463260;257;27503;-79
2022/12/28 02:01:10;;;;;;;8.60;5.78;;;5.10;99.90;;;;;;463225;257;27540;-76
2022/12/28 02:03:12;;;;;;;10.75;5.95;;;5.10;99.90;;;;;;463202;257;27611;-74
2022/12/28 02:05:13;;;;;;;7.10;5.28;;;5.10;99.90;;;;;;463243;257;27490;-76
2022/12/28 02:07:14;;;;;;;8.25;5.75;;;5.20;99.90;;;;;;463267;257;27563;-79
2022/12/28 02:09:15;;;;;;;7.82;5.37;;;5.20;99.90;;;;;;463271;257;27471;-78
2022/12/28 02:11:17;;;;;;;13.00;5.18;;;5.20;99.90;;;;;;463256;257;27451;-80
2022/12/28 02:13:18;;;;;;;9.50;4.93;;;5.20;99.90;;;;;;463225;257;27487;-77
2022/12/28 02:15:19;;;;;;;10.52;5.50;;;5.20;99.90;;;;;;463245;257;28013;-75
2022/12/28 02:17:21;;;;;;;6.95;4.10;;;5.30;99.90;;;;;;463249;257;27452;-74
2022/12/28 02:19:22;;;;;;;6.50;4.65;;;5.30;99.90;;;;;;463198;257;27587;-76
2022/12/28 02:21:23;;;;;;;9.63;5.03;;;5.30;99.90;;;;;;463198;257;27489;-74
2022/12/28 02:23:24;;;;;;;8.30;5.43;;;5.30;99.90;;;;;;463220;257;27472;-75
2022/12/28 02:25:26;;;;;;;7.55;5.10;;;5.30;99.90;;;;;;463239;257;27505;-74
2022/12/28 02:27:27;;;;;;;9.73;5.60;;;5.30;99.90;;;;;;463238;257;27470;-74
2022/12/28 02:29:28;;;;;;;8.02;4.95;;;5.30;99.90;;;;;;463233;257;27952;-74
2022/12/28 02:31:29;;;;;;;10.77;5.85;;;5.30;99.90;;;;;;463267;257;28975;-79
2022/12/28 02:33:31;;;;;;;8.57;4.93;;;5.30;99.90;;;;;;463326;257;27447;-80
2022/12/28 02:35:32;;;;;;;10.15;4.80;;;5.30;99.90;;;;;;463297;257;27478;-79
2022/12/28 02:37:33;;;;;;;10.25;4.43;;;5.30;99.90;;;;;;463248;257;27511;-74
2022/12/28 02:39:34;;;;;;;4.70;3.90;;;5.30;99.90;;;;;;463230;257;27535;-75
2022/12/28 02:41:36;;;;;;;6.35;4.93;;;5.30;99.90;;;;;;463256;257;27486;-75
2022/12/28 02:43:37;;;;;;;5.82;4.45;;;5.30;99.90;;;;;;463228;257;27563;-74
2022/12/28 02:50:17;;;;;;;7.12;4.40;;;5.40;99.90;;;;;;463274;257;27446;-76
2022/12/28 02:52:18;;;;;;;7.05;4.50;;;5.40;99.90;;;;;;463286;257;27567;-79
2022/12/28 02:56:39;;;;;;;5.22;4.05;;;5.40;99.90;;;;;;463225;257;27440;-75
2022/12/28 02:58:40;;;;;;;8.93;3.85;;;5.40;99.90;;;;;;463235;257;27514;-75
2022/12/28 03:00:41;;;;;;;6.50;4.72;;;5.40;99.90;;;;;;463272;257;27551;-78
2022/12/28 03:02:43;;;;;;;4.93;4.25;;;5.50;99.90;;;;;;463242;257;27976;-79
2022/12/28 03:04:44;;;;;;;6.37;4.10;;;5.40;99.90;;;;;;463288;257;28037;-81
2022/12/28 03:09:05;;;;;;;5.35;3.85;;;5.40;99.90;;;;;;463175;257;28081;-75
2022/12/28 03:11:06;;;;;;;7.85;3.60;;;5.50;99.90;;;;;;463273;257;28065;-80
2022/12/28 03:13:41;;;;;;;7.30;3.65;;;5.50;99.90;;;;;;463233;257;27534;-79
2022/12/28 03:15:09;;;;;;;8.15;3.97;;;5.50;99.90;;;;;;461696;257;27489;-75
2022/12/28 03:31:08;;;;;;;5.40;2.72;;;5.40;99.90;;;;;;463197;257;27601;-75
2022/12/28 03:33:09;;;;;;;4.50;3.08;;;5.40;99.90;;;;;;463220;257;27582;-76
2022/12/28 03:35:10;;;;;;;4.07;3.25;;;5.50;99.90;;;;;;463224;257;27463;-76
2022/12/28 03:37:11;;;;;;;5.70;3.33;;;5.50;99.90;;;;;;463200;257;27507;-76
2022/12/28 03:39:13;;;;;;;9.13;3.72;;;5.50;99.90;;;;;;463221;257;27446;-75
2022/12/28 03:41:14;;;;;;;4.43;3.50;;;5.40;99.90;;;;;;463184;257;27990;-80
2022/12/28 03:45:35;;;;;;;4.12;3.25;;;5.40;99.90;;;;;;463194;257;27991;-77
2022/12/28 03:47:36;;;;;;;6.10;2.95;;;5.40;99.90;;;;;;463192;257;27966;-77
2022/12/28 03:49:37;;;;;;;5.30;3.50;;;5.40;99.90;;;;;;463241;257;27479;-77
2022/12/28 03:51:39;;;;;;;6.07;3.50;;;5.40;99.90;;;;;;463186;257;27499;-79
2022/12/28 03:53:40;;;;;;;3.97;3.50;;;5.50;99.90;;;;;;463198;257;27597;-79
2022/12/28 03:55:42;;;;;;;7.78;3.50;;;5.50;99.90;;;;;;463170;257;27455;-79
2022/12/28 03:57:42;;;;;;;7.18;3.10;;;5.40;99.90;;;;;;463199;256;27474;-79
2022/12/28 03:59:44;;;;;;;3.72;2.92;;;5.50;99.90;;;;;;463223;257;27880;-79
2022/12/28 04:01:45;;;;;;;4.47;2.95;;;5.50;99.90;;;;;;463233;257;27916;-79
2022/12/28 04:03:46;;;;;;;2.92;2.62;;;5.50;99.90;;;;;;463173;257;28062;-79
2022/12/28 04:05:47;;;;;;;3.95;2.67;;;5.60;99.90;;;;;;463196;257;27468;-76
2022/12/28 04:07:49;;;;;;;7.82;3.35;;;5.60;99.90;;;;;;463208;257;27498;-79
2022/12/28 04:09:50;;;;;;;3.58;3.10;;;5.60;99.90;;;;;;463222;257;27491;-80
2022/12/28 04:11:51;;;;;;;4.30;2.67;;;5.70;99.90;;;;;;463217;257;27507;-79
2022/12/28 04:13:52;;;;;;;2.65;2.40;;;5.70;99.90;;;;;;463212;257;27482;-79
2022/12/28 04:15:54;;;;;;;4.78;2.47;;;5.70;99.90;;;;;;463200;257;28008;-77
2022/12/28 04:17:55;;;;;;;3.85;3.25;;;5.80;99.90;;;;;;463221;257;28016;-77
2022/12/28 04:19:56;;;;;;;4.25;2.95;;;5.80;99.90;;;;;;463192;257;27571;-77
2022/12/28 04:21:57;;;;;;;6.05;2.85;;;5.80;99.90;;;;;;463196;257;27515;-79
2022/12/28 04:23:59;;;;;;;9.13;2.87;;;5.80;99.90;;;;;;463147;257;27484;-78
2022/12/28 04:26:00;;;;;;;5.20;3.15;;;5.80;99.90;;;;;;463214;257;27475;-78
2022/12/28 04:28:01;;;;;;;3.22;2.72;;;5.80;99.90;;;;;;463192;257;27544;-76
2022/12/28 04:30:02;;;;;;;7.62;3.10;;;5.80;99.90;;;;;;463239;257;27476;-79
2022/12/28 04:32:04;;;;;;;2.95;2.30;;;5.90;99.90;;;;;;463222;257;27949;-80
2022/12/28 04:34:05;;;;;;;3.95;2.58;;;5.90;99.90;;;;;;463196;257;28000;-78
2022/12/28 04:36:06;;;;;;;2.95;2.50;;;5.90;99.90;;;;;;463215;257;27574;-78
2022/12/28 04:38:07;;;;;;;5.85;2.60;;;5.90;99.90;;;;;;463215;257;27446;-77
2022/12/28 04:40:09;;;;;;;4.00;2.90;;;5.90;99.90;;;;;;463219;257;27498;-80
2022/12/28 04:42:10;;;;;;;6.70;2.65;;;5.80;99.90;;;;;;463215;257;27455;-79
2022/12/28 04:44:11;;;;;;;4.83;2.80;;;5.90;99.90;;;;;;463212;257;27478;-79
2022/12/28 04:46:12;;;;;;;5.85;3.15;;;5.90;99.90;;;;;;463194;257;29436;-81
2022/12/28 04:48:14;;;;;;;6.10;2.85;;;5.90;99.90;;;;;;463141;257;27932;-79
2022/12/28 04:50:15;;;;;;;4.45;2.62;;;5.90;99.90;;;;;;463099;257;27518;-77
2022/12/28 04:52:16;;;;;;;4.53;2.55;;;5.90;99.90;;;;;;463111;257;27447;-79
2022/12/28 04:54:18;;;;;;;6.00;2.95;;;5.90;99.90;;;;;;463144;257;27568;-78
2022/12/28 04:56:19;;;;;;;3.55;2.42;;;5.90;99.90;;;;;;463240;257;27494;-78
2022/12/28 04:58:20;;;;;;;5.37;2.80;;;6.00;99.90;;;;;;463262;257;27516;-77
2022/12/28 05:00:21;;;;;;;2.97;2.50;;;6.00;99.90;;;;;;463434;257;28317;-78
2022/12/28 05:02:23;;;;;;;4.00;2.20;;;5.90;99.90;;;;;;463266;257;27950;-76
2022/12/28 05:04:24;;;;;;;5.53;2.65;;;6.00;99.90;;;;;;463247;257;27468;-78
2022/12/28 05:06:26;;;;;;;6.53;2.92;;;6.00;99.90;;;;;;463373;257;27484;-79
2022/12/28 05:08:26;;;;;;;3.60;2.70;;;6.00;99.90;;;;;;463171;257;27535;-78
2022/12/28 05:10:28;;;;;;;3.80;2.80;;;6.00;99.90;;;;;;463202;257;27575;-78
2022/12/28 05:12:29;;;;;;;4.40;2.53;;;5.90;99.90;;;;;;463277;257;27574;-79
2022/12/28 05:14:30;;;;;;;5.37;2.30;;;6.00;99.90;;;;;;463207;257;27927;-77
2022/12/28 05:16:31;;;;;;;7.68;3.47;;;6.00;99.90;;;;;;463240;257;27981;-78
2022/12/28 05:18:33;;;;;;;6.50;3.12;;;6.00;99.90;;;;;;463226;257;27495;-77
2022/12/28 05:20:34;;;;;;;5.05;2.83;;;6.00;99.90;;;;;;463231;257;27475;-76
2022/12/28 05:22:35;;;;;;;4.40;2.80;;;6.00;99.90;;;;;;463192;257;27447;-78
2022/12/28 05:24:36;;;;;;;4.93;2.62;;;6.00;99.90;;;;;;463214;257;27589;-77
2022/12/28 05:26:38;;;;;;;3.47;2.53;;;6.00;99.90;;;;;;463310;257;27515;-80
2022/12/28 05:28:39;;;;;;;5.75;3.00;;;6.00;99.90;;;;;;463207;257;27985;-77
2022/12/28 05:30:40;;;;;;;6.15;2.80;;;6.00;99.90;;;;;;463212;257;27969;-77
2022/12/28 05:32:41;;;;;;;4.80;2.95;;;6.00;99.90;;;;;;463260;257;27544;-79
2022/12/28 05:34:43;;;;;;;3.03;2.75;;;6.00;99.90;;;;;;463214;257;27470;-77
2022/12/28 05:36:44;;;;;;;4.22;2.70;;;6.00;99.90;;;;;;463242;257;27555;-78
2022/12/28 05:38:45;;;;;;;5.95;2.90;;;6.00;99.90;;;;;;463212;257;27439;-76
2022/12/28 05:40:46;;;;;;;4.78;3.28;;;6.00;99.90;;;;;;463206;257;27475;-77
2022/12/28 05:42:48;;;;;;;4.70;2.80;;;6.00;99.90;;;;;;463236;257;27440;-77
2022/12/28 05:44:49;;;;;;;3.83;2.70;;;6.00;99.90;;;;;;463206;257;27966;-77
2022/12/28 05:46:50;;;;;;;2.67;2.22;;;6.00;99.90;;;;;;463241;257;28077;-77
2022/12/28 05:48:51;;;;;;;5.25;2.97;;;6.00;99.90;;;;;;463253;257;27455;-79
2022/12/28 05:50:53;;;;;;;2.72;2.50;;;6.00;99.90;;;;;;463177;257;27474;-74
2022/12/28 05:52:54;;;;;;;6.10;2.70;;;6.10;99.90;;;;;;463129;251;27442;-77
2022/12/28 05:54:55;;;;;;;4.93;2.42;;;6.00;99.90;;;;;;463248;257;27443;-79
2022/12/28 05:56:57;;;;;;;4.35;3.08;;;6.00;99.90;;;;;;463217;257;27486;-79
2022/12/28 05:58:58;;;;;;;4.60;2.67;;;6.00;99.90;;;;;;463225;257;27914;-79
2022/12/28 06:00:59;;;;;;;4.80;2.75;;;6.00;99.90;;;;;;463255;257;27970;-80
2022/12/28 06:03:00;;;;;;;6.15;2.65;;;6.00;99.90;;;;;;463274;257;27542;-79
2022/12/28 06:05:02;;;;;;;3.62;2.75;;;6.00;99.90;;;;;;463275;257;27510;-79
2022/12/28 06:07:03;;;;;;;3.35;2.50;;;6.00;99.90;;;;;;463214;257;27498;-76
2022/12/28 06:09:04;;;;;;;3.62;3.00;;;6.00;99.90;;;;;;463191;257;27452;-77
2022/12/28 06:11:05;;;;;;;8.50;3.20;;;6.00;99.90;;;;;;463268;257;27597;-78
2022/12/28 06:13:07;;;;;;;5.10;3.00;;;5.90;99.90;;;;;;463256;257;29432;-77
2022/12/28 06:15:08;;;;;;;4.00;2.85;;;6.00;99.90;;;;;;463215;257;27901;-77
2022/12/28 06:17:09;;;;;;;2.97;2.65;;;5.90;99.90;;;;;;463225;257;27487;-79
2022/12/28 06:19:10;;;;;;;6.35;2.70;;;5.90;99.90;;;;;;463224;257;27535;-79
2022/12/28 06:21:12;;;;;;;6.72;2.90;;;5.90;99.90;;;;;;463171;257;27590;-77
2022/12/28 06:23:13;;;;;;;3.15;2.58;;;6.00;99.90;;;;;;463230;257;27844;-78
2022/12/28 06:25:17;;;;;;;4.95;2.78;;;6.00;99.90;;;;;;463229;257;27452;-78
2022/12/28 06:27:15;;;;;;;4.75;3.30;;;6.00;99.90;;;;;;463003;257;28122;-78
2022/12/28 06:29:17;;;;;;;5.40;3.10;;;5.90;99.90;;;;;;463198;251;28004;-78
2022/12/28 06:31:18;;;;;;;5.80;2.95;;;6.00;99.90;;;;;;463221;257;27483;-77
2022/12/28 06:33:19;;;;;;;4.90;3.10;;;5.90;99.90;;;;;;463172;257;27582;-79
2022/12/28 06:35:20;;;;;;;4.20;2.55;;;5.90;99.90;;;;;;463169;257;27448;-76
2022/12/28 06:37:22;;;;;;;8.05;3.30;;;6.00;99.90;;;;;;463156;257;27517;-77
2022/12/28 06:39:23;;;;;;;7.90;3.12;;;5.90;99.90;;;;;;463172;257;27532;-77
2022/12/28 06:41:24;;;;;;;5.85;3.20;;;6.00;99.90;;;;;;463139;257;27962;-79
2022/12/28 06:43:25;;;;;;;5.93;2.78;;;5.90;99.90;;;;;;463212;257;27993;-78
2022/12/28 06:45:27;;;;;;;8.13;3.40;;;6.00;99.90;;;;;;463229;257;27511;-77
2022/12/28 06:47:28;;;;;;;3.40;2.72;;;6.00;99.90;;;;;;463213;257;27483;-77
2022/12/28 06:49:29;;;;;;;7.22;2.78;;;6.00;99.90;;;;;;463206;257;27608;-79
2022/12/28 06:51:30;;;;;;;3.70;3.10;;;6.00;99.90;;;;;;463185;257;27554;-81
2022/12/28 06:53:32;;;;;;;5.05;3.00;;;6.00;99.90;;;;;;463226;257;27917;-80
2022/12/28 06:55:33;;;;;;;5.55;2.55;;;6.00;99.90;;;;;;463229;257;27980;-78
2022/12/28 06:57:34;;;;;;;5.50;2.85;;;6.00;99.90;;;;;;463217;257;28056;-78
2022/12/28 06:59:36;;;;;;;6.75;3.08;;;6.00;99.90;;;;;;463221;257;27520;-76
2022/12/28 07:01:37;;;;;;;3.58;2.85;;;6.00;99.90;;;;;;463192;257;27474;-77
2022/12/28 07:03:38;;;;;;;5.35;2.90;;;6.00;99.90;;;;;;463029;257;27490;-77
2022/12/28 07:05:40;;;;;;;5.53;3.30;;;6.00;99.90;;;;;;463214;257;27955;-77
2022/12/28 07:07:41;;;;;;;8.02;3.28;;;6.00;99.90;;;;;;463193;257;28734;-77
2022/12/28 07:09:42;;;;;;;4.40;2.92;;;6.00;99.90;;;;;;463218;257;27509;-79
2022/12/28 07:11:43;;;;;;;6.50;3.30;;;6.00;99.90;;;;;;463200;257;27575;-79
2022/12/28 07:13:45;;;;;;;3.10;2.42;;;6.00;99.90;;;;;;463227;257;27514;-79
2022/12/28 07:15:46;;;;;;;7.50;3.40;;;6.00;99.90;;;;;;463225;257;27442;-79
2022/12/28 07:17:47;;;;;;;6.30;2.50;;;6.00;99.90;;;;;;463207;257;27487;-79
2022/12/28 07:19:50;;;;;;;7.95;3.25;;;6.00;99.90;;;;;;463225;257;28743;-79
2022/12/28 07:21:50;;;;;;;4.65;2.60;;;6.00;99.90;;;;;;463117;257;27957;-78
2022/12/28 07:23:51;;;;;;;2.60;2.40;;;6.00;99.90;;;;;;463201;257;27582;-78
2022/12/28 07:25:52;;;;;;;5.65;3.00;;;6.00;99.90;;;;;;463152;257;27447;-77
2022/12/28 07:27:53;;;;;;;4.78;2.92;;;6.00;99.90;;;;;;463175;257;27597;-77
2022/12/28 07:29:55;;;;;;;4.50;3.10;;;6.10;99.90;;;;;;463188;257;27524;-79
2022/12/28 07:31:56;;;;;;;6.10;2.83;;;6.10;99.90;;;;;;463205;257;27459;-74
2022/12/28 07:33:58;;;;;;;10.98;2.95;;;6.10;99.90;;;;;;463217;257;27982;-79
2022/12/28 07:35:58;;;;;;;8.02;2.92;;;6.00;99.90;;;;;;463162;257;27894;-76
2022/12/28 07:38:00;;;;;;;4.05;3.00;;;6.10;99.90;;;;;;463178;257;27479;-77
2022/12/28 07:40:01;;;;;;;5.35;3.05;;;6.10;99.90;;;;;;463156;257;27586;-77
2022/12/28 07:42:05;;;;;;;4.50;2.90;;;6.10;99.90;;;;;;463172;257;27523;-77
2022/12/28 07:44:03;;;;;;;5.85;3.03;;;6.10;99.90;;;;;;463006;257;27554;-79
2022/12/28 07:46:05;;;;;;;4.65;2.83;;;6.10;99.90;;;;;;463171;257;27534;-79
2022/12/28 07:48:06;;;;;;;4.40;2.90;;;6.20;99.90;;;;;;463195;257;28036;-79
2022/12/28 07:50:07;;;;;;;3.70;2.72;;;6.10;99.90;;;;;;463229;257;28093;-78
2022/12/28 07:52:08;;;;;;;3.00;2.75;;;6.20;99.90;;;;;;463210;257;27438;-78
2022/12/28 07:54:10;;;;;;;6.62;2.95;;;6.20;99.90;;;;;;463196;257;27483;-78
2022/12/28 07:56:11;;;;;;;6.62;2.90;;;6.20;99.90;;;;;;463200;257;27510;-79
2022/12/28 07:58:12;;;;;;;5.68;3.20;;;6.20;99.90;;;;;;463198;257;27558;-75
2022/12/28 08:00:13;;;;;;;4.72;3.28;;;6.30;99.90;;;;;;463234;257;27978;-80
2022/12/28 08:02:15;;;;;;;7.57;3.15;;;6.30;99.90;;;;;;463199;257;27989;-79
2022/12/28 08:04:16;;;;;;;8.90;3.22;;;6.30;99.90;;;;;;463203;257;27606;-77
2022/12/28 08:06:18;;;;;;;4.03;2.90;;;6.30;99.90;;;;;;463215;257;27443;-80
2022/12/28 08:08:19;;;;;;;3.47;2.70;;;6.30;99.90;;;;;;463195;257;27596;-80
2022/12/28 08:10:20;;;;;;;10.38;2.85;;;6.40;99.90;;;;;;463273;257;27602;-78
2022/12/28 08:12:21;;;;;;;6.07;3.30;;;6.40;99.90;;;;;;463238;257;27520;-76
2022/12/28 08:14:22;;;;;;;4.32;2.95;;;6.30;99.90;;;;;;463256;257;27962;-80
2022/12/28 08:16:25;;;;;;;3.30;2.62;;;6.40;99.90;;;;;;463235;257;27438;-80
2022/12/28 08:18:25;;;;;;;3.97;2.90;;;6.40;99.90;;;;;;463131;257;27568;-74
2022/12/28 08:20:26;;;;;;;7.70;2.60;;;6.40;99.90;;;;;;463256;257;27490;-79
2022/12/28 08:22:27;;;;;;;4.03;2.33;;;6.40;99.90;;;;;;463273;257;27552;-79
2022/12/28 08:24:29;;;;;;;2.47;2.20;;;6.40;99.90;;;;;;463200;257;28642;-77
2022/12/28 08:26:30;;;;;;;6.60;2.83;;;6.50;99.90;;;;;;463231;257;27514;-80
2022/12/28 08:28:31;;;;;;;8.50;2.58;;;6.40;99.90;;;;;;463236;257;29362;-79
2022/12/28 08:30:32;;;;;;;4.68;2.60;;;6.40;99.90;;;;;;463250;257;27969;-77
2022/12/28 08:32:34;;;;;;;4.50;2.75;;;6.40;99.90;;;;;;463229;257;27550;-75
2022/12/28 08:34:35;;;;;;;5.35;2.45;;;6.40;99.90;;;;;;463200;257;27474;-75
2022/12/28 08:36:36;;;;;;;2.97;2.25;;;6.40;99.90;;;;;;463241;257;27503;-79
2022/12/28 08:38:37;;;;;;;3.33;2.43;;;6.40;99.90;;;;;;463267;257;27456;-78
2022/12/28 08:40:39;;;;;;;4.43;1.95;;;6.40;99.90;;;;;;463220;257;28895;-77
2022/12/28 08:42:40;;;;;;;4.23;2.20;;;6.50;99.90;;;;;;463229;257;27990;-76
2022/12/28 08:44:41;;;;;;;9.77;2.60;;;6.40;99.90;;;;;;463210;257;29395;-77
2022/12/28 08:46:42;;;;;;;4.30;2.67;;;6.40;99.90;;;;;;463234;257;27992;-76
2022/12/28 08:48:44;;;;;;;5.18;2.30;;;6.50;99.90;;;;;;463221;257;27551;-76
2022/12/28 08:50:45;;;;;;;5.32;3.17;;;6.50;99.90;;;;;;463218;257;27511;-77
2022/12/28 08:52:46;;;;;;;2.70;2.40;;;6.50;99.90;;;;;;463080;257;27446;-77
2022/12/28 08:54:47;;;;;;;12.65;2.60;;;6.50;99.90;;;;;;462995;257;27609;-80
2022/12/28 08:56:49;;;;;;;3.75;2.45;;;6.50;99.90;;;;;;463133;257;28143;-79
2022/12/28 08:58:50;;;;;;;5.57;2.50;;;6.60;99.90;;;;;;462903;257;27966;-80
2022/12/28 09:00:51;;;;;;;3.53;2.87;;;6.60;99.90;;;;;;463109;257;27582;-78
2022/12/28 09:02:53;;;;;;;3.65;2.62;;;6.60;99.90;;;;;;463263;257;28819;-78
2022/12/28 09:04:54;;;;;;;2.53;2.33;;;6.60;99.90;;;;;;463299;257;27600;-78
2022/12/28 09:06:55;;;;;;;6.10;2.87;;;6.70;99.90;;;;;;463286;257;27980;-79
2022/12/28 09:08:56;;;;;;;3.53;2.50;;;6.70;99.90;;;;;;463286;257;28008;-79
2022/12/28 09:10:58;;;;;;;2.77;2.40;;;6.80;99.90;;;;;;463265;257;27993;-79
2022/12/28 09:12:59;;;;;;;5.23;2.67;;;6.80;99.90;;;;;;463188;257;28504;-79
2022/12/28 09:15:00;;;;;;;5.30;2.22;;;6.80;99.90;;;;;;463231;257;28032;-79
2022/12/28 09:17:01;;;;;;;3.53;2.47;;;6.80;99.90;;;;;;463287;257;27487;-79
2022/12/28 09:19:03;;;;;;;4.40;2.23;;;6.80;99.90;;;;;;463253;257;27667;-79
2022/12/28 09:21:04;;;;;;;3.83;2.50;;;6.90;99.90;;;;;;463217;257;28009;-80
2022/12/28 09:23:05;;;;;;;2.90;2.40;;;6.90;99.90;;;;;;463197;257;28835;-79
2022/12/28 09:25:06;;;;;;;6.27;3.27;;;6.90;99.90;;;;;;463209;257;27950;-80
2022/12/28 09:27:08;;;;;;;4.00;2.33;;;6.90;99.90;;;;;;463246;257;27960;-80
2022/12/28 09:29:09;;;;;;;3.03;1.93;;;6.90;99.90;;;;;;463244;257;27987;-80
2022/12/28 09:31:10;;;;;;;3.80;2.00;;;6.90;99.90;;;;;;463228;257;28018;-79
2022/12/28 09:35:31;;;;;;;2.87;2.33;;;7.00;99.90;;;;;;463191;257;27890;-77
2022/12/28 09:37:32;;;;;;;2.43;2.10;;;7.00;99.90;;;;;;463233;257;27864;-81
2022/12/28 09:39:34;;;;;;;3.50;2.17;;;7.10;99.90;;;;;;463300;257;28409;-79
2022/12/28 09:41:35;;;;;;;2.97;2.40;;;7.10;99.90;;;;;;463285;257;28022;-79
2022/12/28 09:43:36;;;;;;;4.70;2.53;;;7.20;99.90;;;;;;463303;257;27948;-79
2022/12/28 09:45:37;;;;;;;3.10;2.27;;;7.10;99.90;;;;;;463242;257;28420;-80
2022/12/28 09:47:39;;;;;;;3.07;2.37;;;7.10;99.80;;;;;;463270;257;27687;-79
2022/12/28 09:49:40;;;;;;;2.58;2.20;;;7.20;99.90;;;;;;463280;257;27593;-80
2022/12/28 09:51:41;;;;;;;3.80;1.90;;;7.20;99.90;;;;;;463293;257;28011;-79
2022/12/28 09:53:42;;;;;;;3.80;2.20;;;7.20;99.90;;;;;;463304;257;28456;-80
2022/12/28 09:55:44;;;;;;;2.57;2.17;;;7.20;99.80;;;;;;463294;257;28364;-81
2022/12/28 09:57:45;;;;;;;4.73;2.77;;;7.20;99.90;;;;;;463312;257;28037;-80
2022/12/28 09:59:46;;;;;;;3.00;2.33;;;7.20;99.70;;;;;;463328;257;27975;-79
2022/12/28 10:01:47;;;;;;;4.80;2.50;;;7.20;99.90;;;;;;463325;257;27896;-80
2022/12/28 10:03:49;;;;;;;3.03;2.07;;;7.30;99.80;;;;;;463308;257;27754;-80
2022/12/28 10:05:50;;;;;;;3.67;2.47;;;7.40;99.50;;;;;;463255;257;28339;-79
2022/12/28 10:07:51;;;;;;;7.10;3.30;;;7.30;99.70;;;;;;463258;257;27959;-80
2022/12/28 10:09:52;;;;;;;3.27;2.10;;;7.30;99.40;;;;;;463310;257;28074;-80
2022/12/28 10:11:54;;;;;;;4.40;2.83;;;7.30;99.80;;;;;;463310;257;27920;-79
2022/12/28 10:13:55;;;;;;;2.77;2.20;;;7.30;99.40;;;;;;463304;257;27982;-80
2022/12/28 10:15:56;;;;;;;2.63;2.20;;;7.30;99.60;;;;;;463260;257;27923;-80
2022/12/28 10:17:57;;;;;;;4.83;2.53;;;7.30;99.70;;;;;;463272;257;27584;-80
2022/12/28 10:19:59;;;;;;;2.43;2.23;;;7.30;99.90;;;;;;463299;257;27968;-80
2022/12/28 10:22:00;;;;;;;5.40;2.70;;;7.30;99.90;;;;;;463300;257;28367;-80
2022/12/28 10:24:01;;;;;;;2.40;2.20;;;7.30;99.90;;;;;;463258;257;28618;-79
2022/12/28 10:26:02;;;;;;;3.53;2.70;;;7.30;99.90;;;;;;463276;257;28271;-79
2022/12/28 10:28:04;;;;;;;4.40;2.00;;;7.30;99.90;;;;;;463248;257;28336;-80
2022/12/28 10:30:05;;;;;;;4.50;2.10;;;7.40;99.90;;;;;;463237;257;28621;-79
2022/12/28 10:32:08;;;;;;;5.10;2.70;;;7.50;99.90;;;;;;463277;257;27685;-80
2022/12/28 10:34:07;;;;;;;18.03;4.07;;;7.60;99.90;;;;;;463109;257;27912;-79
2022/12/28 10:36:09;;;;;;;4.07;2.50;;;7.60;99.50;;;;;;463173;257;27929;-80
2022/12/28 10:38:10;;;;;;;3.00;2.33;;;7.70;99.80;;;;;;463199;257;27952;-80
2022/12/28 10:40:11;;;;;;;4.10;2.27;;;7.70;99.90;;;;;;463266;257;28013;-79
2022/12/28 10:42:12;;;;;;;3.23;2.37;;;7.70;99.90;;;;;;463273;257;27808;-80
2022/12/28 10:44:14;;;;;;;3.87;2.57;;;7.70;99.90;;;;;;463262;257;28084;-80
2022/12/28 10:46:15;;;;;;;2.83;2.53;;;7.70;99.90;;;;;;463227;257;27812;-80
2022/12/28 10:48:16;;;;;;;3.20;2.70;;;7.70;99.90;;;;;;463263;257;28003;-79
2022/12/28 10:50:17;;;;;;;3.73;2.97;;;7.70;99.90;;;;;;463264;257;27978;-80
2022/12/28 10:52:19;;;;;;;2.87;2.53;;;7.80;99.90;;;;;;463252;257;27827;-80
2022/12/28 10:54:20;;;;;;;5.20;2.80;;;7.80;99.90;;;;;;463258;257;27542;-80
2022/12/28 10:56:21;;;;;;;2.70;2.40;;;7.80;99.90;;;;;;463260;257;27972;-79
2022/12/28 10:58:24;;;;;;;4.17;2.60;;;7.80;99.90;;;;;;463231;257;27985;-80
2022/12/28 11:00:24;;;;;;;2.40;2.10;;;7.90;99.60;;;;;;463146;257;28341;-80
2022/12/28 11:02:25;;;;;;;3.90;2.60;;;7.90;99.70;;;;;;463212;257;28580;-80
2022/12/28 11:04:26;;;;;;;4.63;2.83;;;7.90;99.80;;;;;;463243;257;28455;-80
2022/12/28 11:06:27;;;;;;;2.70;2.40;;;7.90;99.40;;;;;;463273;257;28500;-80